sensor_id;sensor_type;location;lat;lon;timestamp;P1;durP1;ratioP1;P2;durP2;ratioP2
41719;SDS011;27405;53.316;-6.294;2023-04-15T00:00:45;14.52;;;3.15;;
41719;SDS011;27405;53.316;-6.294;2023-04-15T00:03:11;17.52;;;3.58;;
41719;SDS011;27405;53.316;-6.294;2023-04-15T00:05:37;17.13;;;2.97;;
41719;SDS011;27405;53.316;-6.294;2023-04-15T00:08:03;11.30;;;2.78;;
41719;SDS011;27405;53.316;-6.294;2023-04-15T00:10:29;19.80;;;3.42;;
41719;SDS011;27405;53.316;-6.294;2023-04-15T00:12:55;11.93;;;2.47;;
41719;SDS011;27405;53.316;-6.294;2023-04-15T00:15:20;10.68;;;2.78;;
41719;SDS011;27405;53.316;-6.294;2023-04-15T00:17:48;12.80;;;3.05;;
41719;SDS011;27405;53.316;-6.294;2023-04-15T00:20:15;14.43;;;2.83;;
41719;SDS011;27405;53.316;-6.294;2023-04-15T00:22:41;19.30;;;2.70;;
41719;SDS011;27405;53.316;-6.294;2023-04-15T00:25:07;13.30;;;2.42;;
41719;SDS011;27405;53.316;-6.294;2023-04-15T00:27:33;11.25;;;2.80;;
41719;SDS011;27405;53.316;-6.294;2023-04-15T00:29:59;13.55;;;2.67;;
41719;SDS011;27405;53.316;-6.294;2023-04-15T00:32:24;11.88;;;2.90;;
41719;SDS011;27405;53.316;-6.294;2023-04-15T00:34:50;15.35;;;2.95;;
41719;SDS011;27405;53.316;-6.294;2023-04-15T00:37:16;14.55;;;3.50;;
41719;SDS011;27405;53.316;-6.294;2023-04-15T00:39:42;11.48;;;2.90;;
41719;SDS011;27405;53.316;-6.294;2023-04-15T00:42:08;13.23;;;3.15;;
41719;SDS011;27405;53.316;-6.294;2023-04-15T00:44:34;17.30;;;3.67;;
41719;SDS011;27405;53.316;-6.294;2023-04-15T00:47:00;16.92;;;4.13;;
41719;SDS011;27405;53.316;-6.294;2023-04-15T00:49:28;19.45;;;4.75;;
41719;SDS011;27405;53.316;-6.294;2023-04-15T00:51:53;19.05;;;5.75;;
41719;SDS011;27405;53.316;-6.294;2023-04-15T00:54:19;15.95;;;5.00;;
41719;SDS011;27405;53.316;-6.294;2023-04-15T00:56:45;18.58;;;4.40;;
41719;SDS011;27405;53.316;-6.294;2023-04-15T00:59:11;15.20;;;3.22;;
41719;SDS011;27405;53.316;-6.294;2023-04-15T01:01:38;15.90;;;3.78;;
41719;SDS011;27405;53.316;-6.294;2023-04-15T01:04:04;15.20;;;3.17;;
41719;SDS011;27405;53.316;-6.294;2023-04-15T01:06:31;12.15;;;3.10;;
41719;SDS011;27405;53.316;-6.294;2023-04-15T01:08:57;15.50;;;3.20;;
41719;SDS011;27405;53.316;-6.294;2023-04-15T01:11:24;15.00;;;3.22;;
41719;SDS011;27405;53.316;-6.294;2023-04-15T01:13:51;15.07;;;3.47;;
41719;SDS011;27405;53.316;-6.294;2023-04-15T01:16:17;13.13;;;3.55;;
41719;SDS011;27405;53.316;-6.294;2023-04-15T01:18:43;13.25;;;3.58;;
41719;SDS011;27405;53.316;-6.294;2023-04-15T01:21:10;13.63;;;3.60;;
41719;SDS011;27405;53.316;-6.294;2023-04-15T01:23:36;16.30;;;3.83;;
41719;SDS011;27405;53.316;-6.294;2023-04-15T01:26:03;18.55;;;4.22;;
41719;SDS011;27405;53.316;-6.294;2023-04-15T01:28:30;13.10;;;4.18;;
41719;SDS011;27405;53.316;-6.294;2023-04-15T01:31:06;15.25;;;4.50;;
41719;SDS011;27405;53.316;-6.294;2023-04-15T01:33:33;14.63;;;3.60;;
41719;SDS011;27405;53.316;-6.294;2023-04-15T01:35:59;15.75;;;3.53;;
41719;SDS011;27405;53.316;-6.294;2023-04-15T01:38:25;13.95;;;3.83;;
41719;SDS011;27405;53.316;-6.294;2023-04-15T01:40:52;12.77;;;3.65;;
41719;SDS011;27405;53.316;-6.294;2023-04-15T01:43:17;13.50;;;3.95;;
41719;SDS011;27405;53.316;-6.294;2023-04-15T01:45:43;15.60;;;3.45;;
41719;SDS011;27405;53.316;-6.294;2023-04-15T01:48:09;11.88;;;3.83;;
41719;SDS011;27405;53.316;-6.294;2023-04-15T01:50:36;13.90;;;4.05;;
41719;SDS011;27405;53.316;-6.294;2023-04-15T01:53:02;10.27;;;3.30;;
41719;SDS011;27405;53.316;-6.294;2023-04-15T01:55:28;11.25;;;3.05;;
41719;SDS011;27405;53.316;-6.294;2023-04-15T01:57:54;12.02;;;3.00;;
41719;SDS011;27405;53.316;-6.294;2023-04-15T02:00:20;16.20;;;3.35;;
41719;SDS011;27405;53.316;-6.294;2023-04-15T02:02:47;9.90;;;2.72;;
41719;SDS011;27405;53.316;-6.294;2023-04-15T02:05:13;13.25;;;3.42;;
41719;SDS011;27405;53.316;-6.294;2023-04-15T02:07:40;14.15;;;3.00;;
41719;SDS011;27405;53.316;-6.294;2023-04-15T02:10:09;14.23;;;2.90;;
41719;SDS011;27405;53.316;-6.294;2023-04-15T02:12:37;14.25;;;3.33;;
41719;SDS011;27405;53.316;-6.294;2023-04-15T02:15:03;13.20;;;3.33;;
41719;SDS011;27405;53.316;-6.294;2023-04-15T02:17:35;13.57;;;2.90;;
41719;SDS011;27405;53.316;-6.294;2023-04-15T02:20:02;16.05;;;3.30;;
41719;SDS011;27405;53.316;-6.294;2023-04-15T02:22:32;13.05;;;2.95;;
41719;SDS011;27405;53.316;-6.294;2023-04-15T02:24:58;13.30;;;3.00;;
41719;SDS011;27405;53.316;-6.294;2023-04-15T02:27:24;18.15;;;3.05;;
41719;SDS011;27405;53.316;-6.294;2023-04-15T02:29:50;11.10;;;2.97;;
41719;SDS011;27405;53.316;-6.294;2023-04-15T02:32:16;14.38;;;3.38;;
41719;SDS011;27405;53.316;-6.294;2023-04-15T02:34:42;12.48;;;3.38;;
41719;SDS011;27405;53.316;-6.294;2023-04-15T02:37:08;12.98;;;3.90;;
41719;SDS011;27405;53.316;-6.294;2023-04-15T02:39:35;14.85;;;3.75;;
41719;SDS011;27405;53.316;-6.294;2023-04-15T02:42:01;13.63;;;3.40;;
41719;SDS011;27405;53.316;-6.294;2023-04-15T02:44:27;15.70;;;4.43;;
41719;SDS011;27405;53.316;-6.294;2023-04-15T02:46:52;14.52;;;4.10;;
41719;SDS011;27405;53.316;-6.294;2023-04-15T02:49:22;15.23;;;4.00;;
41719;SDS011;27405;53.316;-6.294;2023-04-15T02:51:48;14.88;;;4.40;;
41719;SDS011;27405;53.316;-6.294;2023-04-15T02:54:20;11.15;;;4.10;;
41719;SDS011;27405;53.316;-6.294;2023-04-15T02:56:49;13.52;;;4.28;;
41719;SDS011;27405;53.316;-6.294;2023-04-15T02:59:19;13.10;;;4.00;;
41719;SDS011;27405;53.316;-6.294;2023-04-15T03:01:45;14.60;;;3.78;;
41719;SDS011;27405;53.316;-6.294;2023-04-15T03:04:10;14.95;;;3.72;;
41719;SDS011;27405;53.316;-6.294;2023-04-15T03:06:37;13.25;;;3.67;;
41719;SDS011;27405;53.316;-6.294;2023-04-15T03:09:03;17.05;;;3.40;;
41719;SDS011;27405;53.316;-6.294;2023-04-15T03:11:28;15.57;;;3.13;;
41719;SDS011;27405;53.316;-6.294;2023-04-15T03:13:55;10.23;;;3.20;;
41719;SDS011;27405;53.316;-6.294;2023-04-15T03:16:22;15.70;;;2.90;;
41719;SDS011;27405;53.316;-6.294;2023-04-15T03:18:48;10.77;;;3.10;;
41719;SDS011;27405;53.316;-6.294;2023-04-15T03:21:14;12.77;;;3.13;;
41719;SDS011;27405;53.316;-6.294;2023-04-15T03:23:40;17.40;;;3.20;;
41719;SDS011;27405;53.316;-6.294;2023-04-15T03:26:05;11.90;;;3.08;;
41719;SDS011;27405;53.316;-6.294;2023-04-15T03:28:31;16.02;;;3.08;;
41719;SDS011;27405;53.316;-6.294;2023-04-15T03:30:57;14.02;;;2.65;;
41719;SDS011;27405;53.316;-6.294;2023-04-15T03:33:23;8.43;;;2.88;;
41719;SDS011;27405;53.316;-6.294;2023-04-15T03:35:49;10.10;;;2.67;;
41719;SDS011;27405;53.316;-6.294;2023-04-15T03:38:16;16.17;;;3.13;;
41719;SDS011;27405;53.316;-6.294;2023-04-15T03:40:42;9.23;;;2.65;;
41719;SDS011;27405;53.316;-6.294;2023-04-15T03:43:07;15.18;;;3.40;;
41719;SDS011;27405;53.316;-6.294;2023-04-15T03:45:33;15.00;;;3.22;;
41719;SDS011;27405;53.316;-6.294;2023-04-15T03:47:59;16.48;;;3.13;;
41719;SDS011;27405;53.316;-6.294;2023-04-15T03:50:24;11.25;;;3.15;;
41719;SDS011;27405;53.316;-6.294;2023-04-15T03:52:50;9.25;;;3.03;;
41719;SDS011;27405;53.316;-6.294;2023-04-15T03:55:16;9.93;;;2.70;;
41719;SDS011;27405;53.316;-6.294;2023-04-15T03:57:41;10.70;;;2.80;;
41719;SDS011;27405;53.316;-6.294;2023-04-15T04:00:07;9.77;;;3.20;;
41719;SDS011;27405;53.316;-6.294;2023-04-15T04:02:34;15.38;;;3.28;;
41719;SDS011;27405;53.316;-6.294;2023-04-15T04:05:00;17.50;;;3.50;;
41719;SDS011;27405;53.316;-6.294;2023-04-15T04:07:26;12.77;;;3.83;;
41719;SDS011;27405;53.316;-6.294;2023-04-15T04:09:52;20.63;;;3.95;;
41719;SDS011;27405;53.316;-6.294;2023-04-15T04:12:17;16.17;;;3.60;;
41719;SDS011;27405;53.316;-6.294;2023-04-15T04:14:43;17.40;;;3.55;;
41719;SDS011;27405;53.316;-6.294;2023-04-15T04:17:09;14.55;;;3.15;;
41719;SDS011;27405;53.316;-6.294;2023-04-15T04:19:35;16.35;;;3.53;;
41719;SDS011;27405;53.316;-6.294;2023-04-15T04:22:01;14.32;;;3.35;;
41719;SDS011;27405;53.316;-6.294;2023-04-15T04:24:26;16.77;;;3.92;;
41719;SDS011;27405;53.316;-6.294;2023-04-15T04:26:52;15.05;;;4.72;;
41719;SDS011;27405;53.316;-6.294;2023-04-15T04:29:18;16.48;;;5.63;;
41719;SDS011;27405;53.316;-6.294;2023-04-15T04:31:43;18.52;;;5.18;;
41719;SDS011;27405;53.316;-6.294;2023-04-15T04:34:09;20.55;;;4.35;;
41719;SDS011;27405;53.316;-6.294;2023-04-15T04:36:35;14.20;;;4.32;;
41719;SDS011;27405;53.316;-6.294;2023-04-15T04:39:01;16.48;;;4.15;;
41719;SDS011;27405;53.316;-6.294;2023-04-15T04:41:26;15.63;;;3.42;;
41719;SDS011;27405;53.316;-6.294;2023-04-15T04:43:52;17.67;;;3.33;;
41719;SDS011;27405;53.316;-6.294;2023-04-15T04:46:18;17.02;;;3.70;;
41719;SDS011;27405;53.316;-6.294;2023-04-15T04:48:43;20.17;;;4.20;;
41719;SDS011;27405;53.316;-6.294;2023-04-15T04:51:09;21.20;;;4.68;;
41719;SDS011;27405;53.316;-6.294;2023-04-15T04:53:35;17.35;;;4.78;;
41719;SDS011;27405;53.316;-6.294;2023-04-15T04:56:01;22.15;;;5.07;;
41719;SDS011;27405;53.316;-6.294;2023-04-15T04:58:28;20.00;;;5.93;;
41719;SDS011;27405;53.316;-6.294;2023-04-15T05:00:53;20.35;;;6.68;;
41719;SDS011;27405;53.316;-6.294;2023-04-15T05:03:20;21.33;;;7.40;;
41719;SDS011;27405;53.316;-6.294;2023-04-15T05:05:46;23.83;;;8.10;;
41719;SDS011;27405;53.316;-6.294;2023-04-15T05:08:13;18.35;;;8.85;;
41719;SDS011;27405;53.316;-6.294;2023-04-15T05:10:39;21.13;;;8.25;;
41719;SDS011;27405;53.316;-6.294;2023-04-15T05:13:05;19.27;;;8.93;;
41719;SDS011;27405;53.316;-6.294;2023-04-15T05:15:31;18.75;;;8.43;;
41719;SDS011;27405;53.316;-6.294;2023-04-15T05:17:57;22.73;;;8.80;;
41719;SDS011;27405;53.316;-6.294;2023-04-15T05:20:23;23.38;;;8.02;;
41719;SDS011;27405;53.316;-6.294;2023-04-15T05:22:48;20.02;;;7.75;;
41719;SDS011;27405;53.316;-6.294;2023-04-15T05:25:14;26.70;;;9.23;;
41719;SDS011;27405;53.316;-6.294;2023-04-15T05:27:40;24.70;;;9.52;;
41719;SDS011;27405;53.316;-6.294;2023-04-15T05:30:06;20.08;;;9.50;;
41719;SDS011;27405;53.316;-6.294;2023-04-15T05:32:32;20.83;;;8.52;;
41719;SDS011;27405;53.316;-6.294;2023-04-15T05:34:58;14.57;;;6.25;;
41719;SDS011;27405;53.316;-6.294;2023-04-15T05:37:24;17.17;;;4.60;;
41719;SDS011;27405;53.316;-6.294;2023-04-15T05:39:50;15.23;;;4.18;;
41719;SDS011;27405;53.316;-6.294;2023-04-15T05:42:16;19.80;;;4.22;;
41719;SDS011;27405;53.316;-6.294;2023-04-15T05:44:41;18.17;;;4.75;;
41719;SDS011;27405;53.316;-6.294;2023-04-15T05:47:07;18.13;;;3.83;;
41719;SDS011;27405;53.316;-6.294;2023-04-15T05:49:34;16.90;;;4.10;;
41719;SDS011;27405;53.316;-6.294;2023-04-15T05:52:00;16.25;;;3.92;;
41719;SDS011;27405;53.316;-6.294;2023-04-15T05:54:26;16.55;;;3.22;;
41719;SDS011;27405;53.316;-6.294;2023-04-15T05:56:52;15.07;;;3.85;;
41719;SDS011;27405;53.316;-6.294;2023-04-15T05:59:18;17.88;;;3.65;;
41719;SDS011;27405;53.316;-6.294;2023-04-15T06:01:43;18.33;;;4.47;;
41719;SDS011;27405;53.316;-6.294;2023-04-15T06:04:09;13.70;;;3.42;;
41719;SDS011;27405;53.316;-6.294;2023-04-15T06:06:35;17.25;;;3.67;;
41719;SDS011;27405;53.316;-6.294;2023-04-15T06:09:02;16.50;;;4.03;;
41719;SDS011;27405;53.316;-6.294;2023-04-15T06:11:28;18.65;;;3.92;;
41719;SDS011;27405;53.316;-6.294;2023-04-15T06:13:53;17.90;;;3.90;;
41719;SDS011;27405;53.316;-6.294;2023-04-15T06:16:19;14.38;;;3.70;;
41719;SDS011;27405;53.316;-6.294;2023-04-15T06:18:45;19.35;;;3.90;;
41719;SDS011;27405;53.316;-6.294;2023-04-15T06:21:10;12.23;;;3.30;;
41719;SDS011;27405;53.316;-6.294;2023-04-15T06:23:36;15.50;;;3.75;;
41719;SDS011;27405;53.316;-6.294;2023-04-15T06:26:05;16.65;;;3.38;;
41719;SDS011;27405;53.316;-6.294;2023-04-15T06:28:30;9.25;;;3.22;;
41719;SDS011;27405;53.316;-6.294;2023-04-15T06:30:56;15.77;;;3.53;;
41719;SDS011;27405;53.316;-6.294;2023-04-15T06:33:22;17.70;;;3.95;;
41719;SDS011;27405;53.316;-6.294;2023-04-15T06:35:47;14.75;;;3.45;;
41719;SDS011;27405;53.316;-6.294;2023-04-15T06:38:14;20.20;;;4.18;;
41719;SDS011;27405;53.316;-6.294;2023-04-15T06:40:39;18.65;;;4.13;;
41719;SDS011;27405;53.316;-6.294;2023-04-15T06:43:06;14.23;;;3.53;;
41719;SDS011;27405;53.316;-6.294;2023-04-15T06:45:32;16.23;;;3.28;;
41719;SDS011;27405;53.316;-6.294;2023-04-15T06:47:57;17.70;;;3.25;;
41719;SDS011;27405;53.316;-6.294;2023-04-15T06:50:23;12.73;;;2.97;;
41719;SDS011;27405;53.316;-6.294;2023-04-15T06:52:49;15.32;;;3.60;;
41719;SDS011;27405;53.316;-6.294;2023-04-15T06:55:15;22.15;;;3.33;;
41719;SDS011;27405;53.316;-6.294;2023-04-15T06:57:40;15.10;;;3.53;;
41719;SDS011;27405;53.316;-6.294;2023-04-15T07:00:06;14.93;;;3.53;;
41719;SDS011;27405;53.316;-6.294;2023-04-15T07:02:35;18.38;;;3.63;;
41719;SDS011;27405;53.316;-6.294;2023-04-15T07:05:00;19.02;;;4.07;;
41719;SDS011;27405;53.316;-6.294;2023-04-15T07:07:26;21.48;;;4.50;;
41719;SDS011;27405;53.316;-6.294;2023-04-15T07:09:52;20.15;;;4.28;;
41719;SDS011;27405;53.316;-6.294;2023-04-15T07:12:18;15.73;;;5.00;;
41719;SDS011;27405;53.316;-6.294;2023-04-15T07:14:44;20.70;;;4.53;;
41719;SDS011;27405;53.316;-6.294;2023-04-15T07:17:10;18.27;;;4.22;;
41719;SDS011;27405;53.316;-6.294;2023-04-15T07:19:36;15.35;;;4.55;;
41719;SDS011;27405;53.316;-6.294;2023-04-15T07:22:02;20.98;;;3.78;;
41719;SDS011;27405;53.316;-6.294;2023-04-15T07:24:27;25.33;;;5.35;;
41719;SDS011;27405;53.316;-6.294;2023-04-15T07:26:54;20.85;;;5.03;;
41719;SDS011;27405;53.316;-6.294;2023-04-15T07:29:22;16.45;;;4.00;;
41719;SDS011;27405;53.316;-6.294;2023-04-15T07:31:48;19.77;;;6.88;;
41719;SDS011;27405;53.316;-6.294;2023-04-15T07:34:13;23.40;;;7.88;;
41719;SDS011;27405;53.316;-6.294;2023-04-15T07:36:40;18.50;;;5.18;;
41719;SDS011;27405;53.316;-6.294;2023-04-15T07:39:06;10.57;;;3.90;;
41719;SDS011;27405;53.316;-6.294;2023-04-15T07:41:32;12.50;;;3.53;;
41719;SDS011;27405;53.316;-6.294;2023-04-15T07:43:57;13.93;;;4.32;;
41719;SDS011;27405;53.316;-6.294;2023-04-15T07:46:23;14.18;;;4.35;;
41719;SDS011;27405;53.316;-6.294;2023-04-15T07:48:51;14.43;;;4.35;;
41719;SDS011;27405;53.316;-6.294;2023-04-15T07:51:17;14.15;;;3.75;;
41719;SDS011;27405;53.316;-6.294;2023-04-15T07:53:43;14.02;;;3.42;;
41719;SDS011;27405;53.316;-6.294;2023-04-15T07:56:09;10.10;;;3.10;;
41719;SDS011;27405;53.316;-6.294;2023-04-15T07:58:35;11.27;;;2.83;;
41719;SDS011;27405;53.316;-6.294;2023-04-15T08:01:01;12.05;;;2.58;;
41719;SDS011;27405;53.316;-6.294;2023-04-15T08:03:28;13.38;;;2.55;;
41719;SDS011;27405;53.316;-6.294;2023-04-15T08:05:53;8.98;;;2.63;;
41719;SDS011;27405;53.316;-6.294;2023-04-15T08:08:19;15.00;;;2.53;;
41719;SDS011;27405;53.316;-6.294;2023-04-15T08:10:46;11.57;;;2.10;;
41719;SDS011;27405;53.316;-6.294;2023-04-15T08:13:11;7.32;;;2.00;;
41719;SDS011;27405;53.316;-6.294;2023-04-15T08:15:37;6.28;;;1.80;;
41719;SDS011;27405;53.316;-6.294;2023-04-15T08:18:03;9.90;;;2.30;;
41719;SDS011;27405;53.316;-6.294;2023-04-15T08:20:28;9.48;;;2.03;;
41719;SDS011;27405;53.316;-6.294;2023-04-15T08:22:54;7.15;;;2.33;;
41719;SDS011;27405;53.316;-6.294;2023-04-15T08:25:20;8.82;;;2.22;;
41719;SDS011;27405;53.316;-6.294;2023-04-15T08:27:46;14.15;;;2.75;;
41719;SDS011;27405;53.316;-6.294;2023-04-15T08:30:12;10.20;;;2.17;;
41719;SDS011;27405;53.316;-6.294;2023-04-15T08:32:38;11.95;;;2.17;;
41719;SDS011;27405;53.316;-6.294;2023-04-15T08:35:04;8.98;;;2.22;;
41719;SDS011;27405;53.316;-6.294;2023-04-15T08:37:30;10.23;;;2.00;;
41719;SDS011;27405;53.316;-6.294;2023-04-15T08:39:56;10.70;;;2.00;;
41719;SDS011;27405;53.316;-6.294;2023-04-15T08:42:41;16.00;;;2.63;;
41719;SDS011;27405;53.316;-6.294;2023-04-15T08:45:09;6.20;;;2.23;;
41719;SDS011;27405;53.316;-6.294;2023-04-15T08:47:36;9.43;;;2.05;;
41719;SDS011;27405;53.316;-6.294;2023-04-15T08:50:04;6.85;;;1.98;;
41719;SDS011;27405;53.316;-6.294;2023-04-15T08:52:31;9.30;;;1.73;;
41719;SDS011;27405;53.316;-6.294;2023-04-15T08:54:57;7.63;;;1.77;;
41719;SDS011;27405;53.316;-6.294;2023-04-15T08:57:27;6.90;;;1.80;;
41719;SDS011;27405;53.316;-6.294;2023-04-15T08:59:57;5.05;;;1.65;;
41719;SDS011;27405;53.316;-6.294;2023-04-15T09:02:23;6.53;;;1.85;;
41719;SDS011;27405;53.316;-6.294;2023-04-15T09:04:51;4.43;;;1.50;;
41719;SDS011;27405;53.316;-6.294;2023-04-15T09:07:17;4.95;;;1.40;;
41719;SDS011;27405;53.316;-6.294;2023-04-15T09:09:42;7.60;;;1.42;;
41719;SDS011;27405;53.316;-6.294;2023-04-15T09:12:08;7.60;;;1.50;;
41719;SDS011;27405;53.316;-6.294;2023-04-15T09:14:35;6.07;;;1.42;;
41719;SDS011;27405;53.316;-6.294;2023-04-15T09:17:02;2.83;;;1.10;;
41719;SDS011;27405;53.316;-6.294;2023-04-15T09:19:29;3.40;;;1.00;;
41719;SDS011;27405;53.316;-6.294;2023-04-15T09:21:56;9.82;;;1.23;;
41719;SDS011;27405;53.316;-6.294;2023-04-15T09:24:23;5.07;;;1.20;;
41719;SDS011;27405;53.316;-6.294;2023-04-15T09:26:51;2.40;;;1.05;;
41719;SDS011;27405;53.316;-6.294;2023-04-15T09:29:18;6.47;;;1.35;;
41719;SDS011;27405;53.316;-6.294;2023-04-15T09:31:44;5.85;;;1.35;;
41719;SDS011;27405;53.316;-6.294;2023-04-15T09:34:10;6.20;;;1.20;;
41719;SDS011;27405;53.316;-6.294;2023-04-15T09:36:55;5.70;;;1.08;;
41719;SDS011;27405;53.316;-6.294;2023-04-15T09:39:21;6.60;;;1.17;;
41719;SDS011;27405;53.316;-6.294;2023-04-15T09:42:03;3.63;;;1.08;;
41719;SDS011;27405;53.316;-6.294;2023-04-15T09:44:30;3.78;;;0.93;;
41719;SDS011;27405;53.316;-6.294;2023-04-15T09:46:56;4.85;;;0.90;;
41719;SDS011;27405;53.316;-6.294;2023-04-15T09:49:22;5.25;;;1.00;;
41719;SDS011;27405;53.316;-6.294;2023-04-15T09:51:47;2.17;;;0.70;;
41719;SDS011;27405;53.316;-6.294;2023-04-15T09:54:17;5.00;;;1.00;;
41719;SDS011;27405;53.316;-6.294;2023-04-15T09:56:45;3.38;;;0.80;;
41719;SDS011;27405;53.316;-6.294;2023-04-15T09:59:11;3.20;;;0.90;;
41719;SDS011;27405;53.316;-6.294;2023-04-15T10:01:37;3.25;;;0.90;;
41719;SDS011;27405;53.316;-6.294;2023-04-15T10:04:05;4.20;;;1.55;;
41719;SDS011;27405;53.316;-6.294;2023-04-15T10:06:31;4.68;;;1.08;;
41719;SDS011;27405;53.316;-6.294;2023-04-15T10:08:57;5.03;;;1.10;;
41719;SDS011;27405;53.316;-6.294;2023-04-15T10:11:24;4.80;;;0.90;;
41719;SDS011;27405;53.316;-6.294;2023-04-15T10:13:54;3.45;;;1.10;;
41719;SDS011;27405;53.316;-6.294;2023-04-15T10:16:21;5.10;;;0.90;;
41719;SDS011;27405;53.316;-6.294;2023-04-15T10:18:53;1.83;;;0.80;;
41719;SDS011;27405;53.316;-6.294;2023-04-15T10:21:21;3.03;;;0.90;;
41719;SDS011;27405;53.316;-6.294;2023-04-15T10:23:47;3.42;;;0.90;;
41719;SDS011;27405;53.316;-6.294;2023-04-15T10:26:14;4.55;;;1.20;;
41719;SDS011;27405;53.316;-6.294;2023-04-15T10:28:41;2.97;;;1.02;;
41719;SDS011;27405;53.316;-6.294;2023-04-15T10:31:08;8.60;;;1.38;;
41719;SDS011;27405;53.316;-6.294;2023-04-15T10:33:36;2.33;;;0.95;;
41719;SDS011;27405;53.316;-6.294;2023-04-15T10:36:03;10.77;;;1.63;;
41719;SDS011;27405;53.316;-6.294;2023-04-15T10:38:34;3.83;;;1.30;;
41719;SDS011;27405;53.316;-6.294;2023-04-15T10:41:14;3.67;;;1.13;;
41719;SDS011;27405;53.316;-6.294;2023-04-15T10:46:50;3.25;;;0.98;;
41719;SDS011;27405;53.316;-6.294;2023-04-15T10:49:16;5.95;;;1.30;;
41719;SDS011;27405;53.316;-6.294;2023-04-15T10:51:50;5.38;;;1.00;;
41719;SDS011;27405;53.316;-6.294;2023-04-15T10:59:28;4.70;;;1.50;;
41719;SDS011;27405;53.316;-6.294;2023-04-15T11:02:06;4.70;;;1.60;;
41719;SDS011;27405;53.316;-6.294;2023-04-15T11:10:00;3.97;;;1.38;;
41719;SDS011;27405;53.316;-6.294;2023-04-15T11:12:36;28.30;;;2.72;;
41719;SDS011;27405;53.316;-6.294;2023-04-15T11:18:11;8.32;;;1.23;;
41719;SDS011;27405;53.316;-6.294;2023-04-15T11:20:46;6.75;;;1.42;;
41719;SDS011;27405;53.316;-6.294;2023-04-15T11:23:41;5.15;;;1.13;;
41719;SDS011;27405;53.316;-6.294;2023-04-15T11:26:10;6.18;;;1.23;;
41719;SDS011;27405;53.316;-6.294;2023-04-15T11:28:37;4.68;;;1.05;;
41719;SDS011;27405;53.316;-6.294;2023-04-15T11:31:05;3.75;;;1.40;;
41719;SDS011;27405;53.316;-6.294;2023-04-15T11:33:32;3.22;;;1.23;;
41719;SDS011;27405;53.316;-6.294;2023-04-15T11:35:58;3.85;;;1.10;;
41719;SDS011;27405;53.316;-6.294;2023-04-15T11:38:23;6.80;;;1.20;;
41719;SDS011;27405;53.316;-6.294;2023-04-15T11:40:49;3.00;;;1.38;;
41719;SDS011;27405;53.316;-6.294;2023-04-15T11:43:17;4.45;;;1.50;;
41719;SDS011;27405;53.316;-6.294;2023-04-15T11:45:49;7.25;;;1.80;;
41719;SDS011;27405;53.316;-6.294;2023-04-15T11:48:29;5.00;;;1.55;;
41719;SDS011;27405;53.316;-6.294;2023-04-15T11:50:59;5.13;;;1.50;;
41719;SDS011;27405;53.316;-6.294;2023-04-15T11:53:40;7.35;;;1.65;;
41719;SDS011;27405;53.316;-6.294;2023-04-15T11:56:06;6.03;;;1.42;;
41719;SDS011;27405;53.316;-6.294;2023-04-15T11:58:42;5.22;;;1.38;;
41719;SDS011;27405;53.316;-6.294;2023-04-15T12:01:10;4.32;;;1.27;;
41719;SDS011;27405;53.316;-6.294;2023-04-15T12:03:39;9.30;;;1.77;;
41719;SDS011;27405;53.316;-6.294;2023-04-15T12:16:54;4.50;;;1.67;;
41719;SDS011;27405;53.316;-6.294;2023-04-15T12:19:25;4.93;;;1.63;;
41719;SDS011;27405;53.316;-6.294;2023-04-15T12:21:53;5.80;;;2.20;;
41719;SDS011;27405;53.316;-6.294;2023-04-15T12:24:24;5.75;;;1.85;;
41719;SDS011;27405;53.316;-6.294;2023-04-15T12:26:51;7.32;;;2.15;;
41719;SDS011;27405;53.316;-6.294;2023-04-15T12:29:18;4.27;;;1.53;;
41719;SDS011;27405;53.316;-6.294;2023-04-15T12:31:52;9.45;;;2.08;;
41719;SDS011;27405;53.316;-6.294;2023-04-15T12:34:28;7.95;;;2.13;;
41719;SDS011;27405;53.316;-6.294;2023-04-15T12:36:58;10.60;;;2.50;;
41719;SDS011;27405;53.316;-6.294;2023-04-15T12:39:25;6.40;;;1.50;;
41719;SDS011;27405;53.316;-6.294;2023-04-15T12:41:53;5.43;;;1.77;;
41719;SDS011;27405;53.316;-6.294;2023-04-15T12:44:19;7.53;;;1.95;;
41719;SDS011;27405;53.316;-6.294;2023-04-15T12:46:46;13.35;;;1.90;;
41719;SDS011;27405;53.316;-6.294;2023-04-15T12:49:11;8.00;;;1.70;;
41719;SDS011;27405;53.316;-6.294;2023-04-15T12:51:39;6.68;;;1.63;;
41719;SDS011;27405;53.316;-6.294;2023-04-15T12:54:04;5.03;;;1.48;;
41719;SDS011;27405;53.316;-6.294;2023-04-15T12:56:30;7.20;;;1.65;;
41719;SDS011;27405;53.316;-6.294;2023-04-15T12:58:56;3.85;;;1.25;;
41719;SDS011;27405;53.316;-6.294;2023-04-15T13:01:21;4.65;;;1.55;;
41719;SDS011;27405;53.316;-6.294;2023-04-15T13:03:47;6.43;;;1.77;;
41719;SDS011;27405;53.316;-6.294;2023-04-15T13:06:14;9.07;;;1.35;;
41719;SDS011;27405;53.316;-6.294;2023-04-15T13:08:40;7.55;;;1.60;;
41719;SDS011;27405;53.316;-6.294;2023-04-15T13:11:06;7.63;;;1.48;;
41719;SDS011;27405;53.316;-6.294;2023-04-15T13:13:32;6.05;;;1.45;;
41719;SDS011;27405;53.316;-6.294;2023-04-15T13:15:58;6.13;;;1.17;;
41719;SDS011;27405;53.316;-6.294;2023-04-15T13:18:24;4.85;;;1.20;;
41719;SDS011;27405;53.316;-6.294;2023-04-15T13:20:49;2.80;;;1.17;;
41719;SDS011;27405;53.316;-6.294;2023-04-15T13:23:15;8.10;;;1.65;;
41719;SDS011;27405;53.316;-6.294;2023-04-15T13:25:41;5.38;;;1.30;;
41719;SDS011;27405;53.316;-6.294;2023-04-15T13:28:07;4.03;;;1.20;;
41719;SDS011;27405;53.316;-6.294;2023-04-15T13:30:36;6.65;;;1.55;;
41719;SDS011;27405;53.316;-6.294;2023-04-15T13:33:02;4.28;;;1.40;;
41719;SDS011;27405;53.316;-6.294;2023-04-15T13:35:28;4.88;;;1.40;;
41719;SDS011;27405;53.316;-6.294;2023-04-15T13:37:54;5.13;;;1.35;;
41719;SDS011;27405;53.316;-6.294;2023-04-15T13:40:20;5.43;;;1.30;;
41719;SDS011;27405;53.316;-6.294;2023-04-15T13:42:46;5.47;;;1.33;;
41719;SDS011;27405;53.316;-6.294;2023-04-15T13:45:12;6.40;;;1.30;;
41719;SDS011;27405;53.316;-6.294;2023-04-15T13:47:38;5.05;;;1.30;;
41719;SDS011;27405;53.316;-6.294;2023-04-15T13:50:05;3.95;;;1.23;;
41719;SDS011;27405;53.316;-6.294;2023-04-15T13:52:31;5.03;;;1.08;;
41719;SDS011;27405;53.316;-6.294;2023-04-15T13:54:56;6.28;;;1.52;;
41719;SDS011;27405;53.316;-6.294;2023-04-15T13:57:22;6.15;;;1.58;;
41719;SDS011;27405;53.316;-6.294;2023-04-15T13:59:48;6.13;;;1.60;;
41719;SDS011;27405;53.316;-6.294;2023-04-15T14:02:14;4.60;;;1.25;;
41719;SDS011;27405;53.316;-6.294;2023-04-15T14:04:39;6.85;;;1.70;;
41719;SDS011;27405;53.316;-6.294;2023-04-15T14:07:05;6.25;;;1.40;;
41719;SDS011;27405;53.316;-6.294;2023-04-15T14:09:31;6.78;;;1.40;;
41719;SDS011;27405;53.316;-6.294;2023-04-15T14:11:56;6.65;;;1.50;;
41719;SDS011;27405;53.316;-6.294;2023-04-15T14:14:23;4.15;;;1.40;;
41719;SDS011;27405;53.316;-6.294;2023-04-15T14:16:49;5.07;;;1.50;;
41719;SDS011;27405;53.316;-6.294;2023-04-15T14:19:15;5.72;;;1.40;;
41719;SDS011;27405;53.316;-6.294;2023-04-15T14:21:41;5.70;;;1.23;;
41719;SDS011;27405;53.316;-6.294;2023-04-15T14:24:06;5.90;;;1.35;;
41719;SDS011;27405;53.316;-6.294;2023-04-15T14:26:32;4.55;;;1.00;;
41719;SDS011;27405;53.316;-6.294;2023-04-15T14:28:58;5.78;;;1.60;;
41719;SDS011;27405;53.316;-6.294;2023-04-15T14:31:24;4.63;;;1.42;;
41719;SDS011;27405;53.316;-6.294;2023-04-15T14:33:50;8.88;;;1.50;;
41719;SDS011;27405;53.316;-6.294;2023-04-15T14:36:16;5.43;;;1.23;;
41719;SDS011;27405;53.316;-6.294;2023-04-15T14:38:42;3.42;;;1.27;;
41719;SDS011;27405;53.316;-6.294;2023-04-15T14:41:08;3.67;;;1.20;;
41719;SDS011;27405;53.316;-6.294;2023-04-15T14:43:34;4.50;;;1.27;;
41719;SDS011;27405;53.316;-6.294;2023-04-15T14:46:00;4.57;;;1.30;;
41719;SDS011;27405;53.316;-6.294;2023-04-15T14:48:26;5.15;;;1.10;;
41719;SDS011;27405;53.316;-6.294;2023-04-15T14:50:52;3.75;;;1.27;;